Time;durP1;ratioP1;P1;durP2;ratioP2;P2;SDS_P1;SDS_P2;PMS_P1;PMS_P2;Temp;Humidity;BMP_temperature;BMP_pressure;BME280_temperature;BME280_humidity;BME280_pressure;Samples;Min_cycle;Max_cycle;Signal;HPM_P1;HPM_P2
2023/10/18 00:00:03;;;;;;;13.53;12.00;;;;;;;;;;4932137;29;20180;-74
2023/10/18 00:02:29;;;;;;;15.80;11.87;;;;;;;;;;4930922;29;20228;-74
2023/10/18 00:04:54;;;;;;;15.90;11.07;;;;;;;;;;4932486;29;20228;-74
2023/10/18 00:07:20;;;;;;;14.17;11.33;;;;;;;;;;4936138;29;20286;-74
2023/10/18 00:09:45;;;;;;;12.77;10.40;;;;;;;;;;4948644;28;20257;-74
2023/10/18 00:12:11;;;;;;;16.13;11.43;;;;;;;;;;4937146;29;20268;-74
2023/10/18 00:14:39;;;;;;;14.70;11.37;;;;;;;;;;4957375;28;20206;-74
2023/10/18 00:17:05;;;;;;;14.37;10.93;;;;;;;;;;4936573;28;20423;-74
2023/10/18 00:19:30;;;;;;;17.77;12.23;;;;;;;;;;4949430;28;20178;-74
2023/10/18 00:21:55;;;;;;;14.50;11.07;;;;;;;;;;4948879;28;20185;-74
2023/10/18 00:24:20;;;;;;;14.70;11.33;;;;;;;;;;4950385;28;20173;-74
2023/10/18 00:26:46;;;;;;;14.23;10.53;;;;;;;;;;4949577;28;20200;-74
2023/10/18 00:29:12;;;;;;;13.47;9.87;;;;;;;;;;4951158;28;20177;-74
2023/10/18 00:31:37;;;;;;;11.33;9.37;;;;;;;;;;4950055;29;20194;-74
2023/10/18 00:34:04;;;;;;;16.23;10.73;;;;;;;;;;4935337;29;20206;-74
2023/10/18 00:36:30;;;;;;;12.23;10.43;;;;;;;;;;4932078;28;20250;-74
2023/10/18 00:38:55;;;;;;;12.00;9.80;;;;;;;;;;4934067;29;20256;-74
2023/10/18 00:41:32;;;;;;;14.60;10.17;;;;;;;;;;4934774;28;20511;-74
2023/10/18 00:43:57;;;;;;;13.10;10.17;;;;;;;;;;4932920;28;20184;-74
2023/10/18 00:46:22;;;;;;;12.27;10.10;;;;;;;;;;4932340;28;20285;-74
2023/10/18 00:48:48;;;;;;;11.60;9.47;;;;;;;;;;4949776;28;20178;-74
2023/10/18 00:51:17;;;;;;;11.73;9.10;;;;;;;;;;4949549;28;20184;-74
2023/10/18 00:53:44;;;;;;;12.37;9.27;;;;;;;;;;4948916;28;20208;-74
2023/10/18 00:56:11;;;;;;;13.87;9.77;;;;;;;;;;4949112;28;20674;-74
2023/10/18 00:58:39;;;;;;;14.57;9.67;;;;;;;;;;4935639;28;20244;-74
2023/10/18 01:01:10;;;;;;;13.43;10.50;;;;;;;;;;4948181;28;20188;-74
2023/10/18 01:03:42;;;;;;;12.90;10.40;;;;;;;;;;4933423;29;20182;-74
2023/10/18 01:06:20;;;;;;;11.80;9.67;;;;;;;;;;4931525;29;20209;-74
2023/10/18 01:08:46;;;;;;;11.17;9.83;;;;;;;;;;4936260;28;20225;-74
2023/10/18 01:11:11;;;;;;;13.63;10.93;;;;;;;;;;4939344;28;20312;-74
2023/10/18 01:13:40;;;;;;;14.07;10.50;;;;;;;;;;4960188;28;20243;-74
2023/10/18 01:16:07;;;;;;;15.33;11.50;;;;;;;;;;4953647;28;20192;-74
2023/10/18 01:18:32;;;;;;;12.60;10.20;;;;;;;;;;4939898;28;20282;-74
2023/10/18 01:20:58;;;;;;;13.43;10.63;;;;;;;;;;4938798;28;20230;-74
2023/10/18 01:23:23;;;;;;;14.17;11.47;;;;;;;;;;4954448;28;20179;-74
2023/10/18 01:25:49;;;;;;;18.57;11.43;;;;;;;;;;4949961;28;20166;-74
2023/10/18 01:28:14;;;;;;;13.87;11.17;;;;;;;;;;4956250;28;20192;-74
2023/10/18 01:30:39;;;;;;;14.73;10.70;;;;;;;;;;4952970;28;20169;-74
2023/10/18 01:33:10;;;;;;;15.33;11.07;;;;;;;;;;4937861;29;20190;-74
2023/10/18 01:35:35;;;;;;;16.37;12.00;;;;;;;;;;4938641;28;20285;-74
2023/10/18 01:38:04;;;;;;;13.73;11.37;;;;;;;;;;4934582;29;20187;-74
2023/10/18 01:42:57;;;;;;;13.47;10.93;;;;;;;;;;4960994;28;20191;-74
2023/10/18 01:45:25;;;;;;;15.73;11.13;;;;;;;;;;4934888;29;20191;-74
2023/10/18 01:47:51;;;;;;;14.13;11.33;;;;;;;;;;4936427;28;20235;-74
2023/10/18 01:50:18;;;;;;;14.53;11.13;;;;;;;;;;4960383;28;20214;-74
2023/10/18 01:52:44;;;;;;;13.80;11.60;;;;;;;;;;4935552;28;20215;-74
2023/10/18 01:55:12;;;;;;;15.67;11.17;;;;;;;;;;4955381;28;20288;-74
2023/10/18 01:57:37;;;;;;;14.03;10.77;;;;;;;;;;4953745;28;20187;-74
2023/10/18 02:00:03;;;;;;;14.93;10.93;;;;;;;;;;4958926;28;20196;-74
2023/10/18 02:02:32;;;;;;;14.10;10.20;;;;;;;;;;4956683;28;20180;-74
2023/10/18 02:04:57;;;;;;;14.87;10.40;;;;;;;;;;4956844;28;20234;-74
2023/10/18 02:07:22;;;;;;;12.83;10.47;;;;;;;;;;4936211;29;20515;-74
2023/10/18 02:09:57;;;;;;;11.87;9.33;;;;;;;;;;4949852;28;20232;-74
2023/10/18 02:12:23;;;;;;;11.03;9.47;;;;;;;;;;4940701;29;20181;-74
2023/10/18 02:14:49;;;;;;;13.23;9.87;;;;;;;;;;4941086;28;20259;-74
2023/10/18 02:17:14;;;;;;;12.10;9.33;;;;;;;;;;4960222;28;20248;-74
2023/10/18 02:19:39;;;;;;;13.10;10.23;;;;;;;;;;4954654;28;20268;-74
2023/10/18 02:22:07;;;;;;;12.63;8.50;;;;;;;;;;4953227;28;20271;-74
2023/10/18 02:24:33;;;;;;;10.53;8.37;;;;;;;;;;4958439;28;20180;-74
2023/10/18 02:27:00;;;;;;;10.17;8.30;;;;;;;;;;4960027;28;20189;-74
2023/10/18 02:29:27;;;;;;;12.07;8.53;;;;;;;;;;4936634;28;20185;-74
2023/10/18 02:31:56;;;;;;;11.83;7.67;;;;;;;;;;4956941;28;20180;-74
2023/10/18 02:34:23;;;;;;;9.47;7.57;;;;;;;;;;4955995;28;20296;-74
2023/10/18 02:36:50;;;;;;;11.53;9.17;;;;;;;;;;4954196;28;20180;-74
2023/10/18 02:39:23;;;;;;;10.43;8.17;;;;;;;;;;4952956;28;20360;-74
2023/10/18 02:41:48;;;;;;;11.00;7.30;;;;;;;;;;4952912;28;20188;-74
2023/10/18 02:44:21;;;;;;;10.17;8.53;;;;;;;;;;4950830;28;20192;-74
2023/10/18 02:46:48;;;;;;;8.83;7.90;;;;;;;;;;4949891;28;20188;-74
2023/10/18 02:49:14;;;;;;;10.10;7.70;;;;;;;;;;4936699;29;20200;-74
2023/10/18 02:51:40;;;;;;;8.57;7.67;;;;;;;;;;4939311;28;20187;-74
2023/10/18 02:54:16;;;;;;;12.07;8.33;;;;;;;;;;4955005;28;20207;-74
2023/10/18 02:56:42;;;;;;;13.90;8.63;;;;;;;;;;4952327;28;20183;-74
2023/10/18 02:59:08;;;;;;;11.47;9.00;;;;;;;;;;4936569;29;20186;-74
2023/10/18 03:01:44;;;;;;;9.27;8.00;;;;;;;;;;4940402;28;20192;-74
2023/10/18 03:04:16;;;;;;;16.57;9.87;;;;;;;;;;4957275;28;20175;-74
2023/10/18 03:06:42;;;;;;;11.33;9.17;;;;;;;;;;4954943;28;20200;-74
2023/10/18 03:12:14;;;;;;;8.53;7.60;;;;;;;;;;4884241;29;20239;-74
2023/10/18 03:14:41;;;;;;;12.27;8.40;;;;;;;;;;4871914;29;20231;-74
2023/10/18 03:17:14;;;;;;;13.53;8.97;;;;;;;;;;4878108;29;20211;-74
2023/10/18 03:19:40;;;;;;;10.33;8.60;;;;;;;;;;4873233;29;20188;-74
2023/10/18 03:22:06;;;;;;;9.87;7.70;;;;;;;;;;4878683;29;20288;-74
2023/10/18 03:24:32;;;;;;;10.40;7.93;;;;;;;;;;4876608;29;20272;-74
2023/10/18 03:27:07;;;;;;;12.57;8.53;;;;;;;;;;4874663;29;20198;-74
2023/10/18 03:29:32;;;;;;;9.80;7.40;;;;;;;;;;4881390;29;20209;-74
2023/10/18 03:31:57;;;;;;;8.60;7.67;;;;;;;;;;4875455;29;20208;-74
2023/10/18 03:34:22;;;;;;;15.97;8.47;;;;;;;;;;4878061;29;20195;-74
2023/10/18 03:36:53;;;;;;;9.53;8.10;;;;;;;;;;4874682;29;20222;-74
2023/10/18 03:39:19;;;;;;;9.40;7.40;;;;;;;;;;4869732;29;20208;-74
2023/10/18 03:41:46;;;;;;;10.90;7.67;;;;;;;;;;4877846;29;20212;-74
2023/10/18 03:44:13;;;;;;;9.37;7.67;;;;;;;;;;4935724;29;20185;-74
2023/10/18 03:46:38;;;;;;;9.13;6.20;;;;;;;;;;4952500;28;20244;-74
2023/10/18 03:49:08;;;;;;;8.43;6.20;;;;;;;;;;4946761;28;20285;-74
2023/10/18 03:51:33;;;;;;;10.07;7.03;;;;;;;;;;4934916;29;20192;-74
2023/10/18 03:54:00;;;;;;;8.57;6.53;;;;;;;;;;4929583;28;20211;-74
2023/10/18 03:56:26;;;;;;;9.13;6.73;;;;;;;;;;4950565;28;20264;-74
2023/10/18 03:59:40;;;;;;;9.33;6.93;;;;;;;;;;4959212;28;20289;-74
2023/10/18 04:01:41;;;;;;;8.40;6.30;;;;;;;;;;4949626;28;20192;-74
2023/10/18 04:04:07;;;;;;;9.00;6.73;;;;;;;;;;4956851;28;20188;-74
2023/10/18 04:06:35;;;;;;;7.93;7.13;;;;;;;;;;4949561;28;20445;-74
2023/10/18 04:09:13;;;;;;;12.13;7.20;;;;;;;;;;4928503;28;20237;-74
2023/10/18 04:11:38;;;;;;;8.90;7.33;;;;;;;;;;4925791;29;20189;-74
2023/10/18 04:14:03;;;;;;;10.37;6.67;;;;;;;;;;4931651;29;20209;-74
2023/10/18 04:16:30;;;;;;;8.30;7.03;;;;;;;;;;4931730;29;20182;-74
2023/10/18 04:18:56;;;;;;;11.20;7.00;;;;;;;;;;4929716;29;20178;-74
2023/10/18 04:21:25;;;;;;;8.40;6.40;;;;;;;;;;4950716;28;20459;-74
2023/10/18 04:23:54;;;;;;;8.90;7.10;;;;;;;;;;4948100;28;20651;-74
2023/10/18 04:26:19;;;;;;;8.00;7.20;;;;;;;;;;4947643;28;20344;-74
2023/10/18 04:28:45;;;;;;;9.33;7.33;;;;;;;;;;4925155;28;20252;-74
2023/10/18 04:31:12;;;;;;;6.97;6.27;;;;;;;;;;4950961;28;20185;-74
2023/10/18 04:36:10;;;;;;;9.40;7.07;;;;;;;;;;4954391;28;20475;-74
2023/10/18 04:38:46;;;;;;;7.60;6.80;;;;;;;;;;4932323;29;20185;-74
2023/10/18 04:41:23;;;;;;;7.63;6.83;;;;;;;;;;4933843;28;20180;-74
2023/10/18 04:44:10;;;;;;;9.07;6.30;;;;;;;;;;4947852;28;20208;-74
2023/10/18 04:46:39;;;;;;;8.10;6.33;;;;;;;;;;4954075;28;20229;-74
2023/10/18 04:54:17;;;;;;;12.83;9.83;;;;;;;;;;4952058;28;20198;-74
2023/10/18 04:56:46;;;;;;;7.70;6.90;;;;;;;;;;4937007;28;20184;-72
2023/10/18 05:04:29;;;;;;;9.97;7.20;;;;;;;;;;4954806;28;20181;-72
2023/10/18 05:06:56;;;;;;;9.47;7.27;;;;;;;;;;4935671;28;20208;-71
2023/10/18 05:09:41;;;;;;;10.43;7.33;;;;;;;;;;4937032;28;20264;-72
2023/10/18 05:17:26;;;;;;;8.80;7.37;;;;;;;;;;4959863;28;20176;-72
2023/10/18 05:19:55;;;;;;;9.97;6.93;;;;;;;;;;4954335;28;20209;-72
2023/10/18 05:22:23;;;;;;;9.97;7.87;;;;;;;;;;4967423;28;20172;-71
2023/10/18 05:27:35;;;;;;;9.33;7.30;;;;;;;;;;4953388;28;20227;-71
2023/10/18 05:30:08;;;;;;;7.73;6.87;;;;;;;;;;4954561;28;20190;-71
2023/10/18 05:35:03;;;;;;;10.00;7.27;;;;;;;;;;4956539;28;20236;-71
2023/10/18 05:37:32;;;;;;;8.87;7.47;;;;;;;;;;4954216;28;20252;-71
2023/10/18 05:42:46;;;;;;;9.17;7.07;;;;;;;;;;4950743;28;20180;-72
2023/10/18 05:45:13;;;;;;;13.37;7.27;;;;;;;;;;4931181;29;20207;-72
2023/10/18 05:47:42;;;;;;;12.90;9.23;;;;;;;;;;4939387;29;20181;-71
2023/10/18 05:50:12;;;;;;;10.93;7.87;;;;;;;;;;4936402;28;20181;-72
2023/10/18 05:52:37;;;;;;;9.17;7.97;;;;;;;;;;4939341;29;20220;-72
2023/10/18 05:55:08;;;;;;;12.63;7.97;;;;;;;;;;4955125;28;20228;-71
2023/10/18 05:57:33;;;;;;;13.60;12.20;;;;;;;;;;4952610;28;20200;-72
2023/10/18 05:59:59;;;;;;;9.43;8.43;;;;;;;;;;4952420;28;20186;-72
2023/10/18 06:02:25;;;;;;;11.03;8.13;;;;;;;;;;4937152;29;20241;-72
2023/10/18 06:04:51;;;;;;;9.23;7.30;;;;;;;;;;4952079;28;20273;-71
2023/10/18 06:07:18;;;;;;;9.67;7.17;;;;;;;;;;4951506;28;20202;-71
2023/10/18 06:09:47;;;;;;;7.67;6.87;;;;;;;;;;4955268;28;20217;-72
2023/10/18 06:12:21;;;;;;;7.20;6.50;;;;;;;;;;4958903;28;20181;-72
2023/10/18 06:14:47;;;;;;;8.73;7.40;;;;;;;;;;4935631;28;20283;-72
2023/10/18 06:17:12;;;;;;;9.67;6.90;;;;;;;;;;4955362;28;20250;-71
2023/10/18 06:19:38;;;;;;;8.47;6.50;;;;;;;;;;4935696;29;20505;-72
2023/10/18 06:22:15;;;;;;;8.60;6.87;;;;;;;;;;4954450;28;20259;-72
2023/10/18 06:24:48;;;;;;;6.67;5.93;;;;;;;;;;4935262;29;20237;-71
2023/10/18 06:27:16;;;;;;;8.20;6.50;;;;;;;;;;4935761;28;20204;-72
2023/10/18 06:29:42;;;;;;;7.30;6.20;;;;;;;;;;4958945;28;20169;-71
2023/10/18 06:32:09;;;;;;;6.93;6.10;;;;;;;;;;4960623;28;20216;-71
2023/10/18 06:34:34;;;;;;;8.07;7.27;;;;;;;;;;4935294;29;20209;-72
2023/10/18 06:37:01;;;;;;;7.77;5.87;;;;;;;;;;4956370;28;20192;-71
2023/10/18 06:39:34;;;;;;;8.50;7.00;;;;;;;;;;4934518;29;20177;-71
2023/10/18 06:41:59;;;;;;;8.03;7.23;;;;;;;;;;4952308;28;20178;-71
2023/10/18 06:44:27;;;;;;;9.50;8.17;;;;;;;;;;4951666;28;20181;-72
2023/10/18 06:46:53;;;;;;;7.97;6.80;;;;;;;;;;4958968;28;20182;-71
2023/10/18 06:49:18;;;;;;;7.83;7.03;;;;;;;;;;4954216;28;20253;-72
2023/10/18 06:51:44;;;;;;;8.37;7.50;;;;;;;;;;4940176;29;20366;-71
2023/10/18 06:54:19;;;;;;;10.17;7.77;;;;;;;;;;4951023;28;20284;-71
2023/10/18 06:56:47;;;;;;;9.90;7.60;;;;;;;;;;4961352;28;20174;-71
2023/10/18 06:59:13;;;;;;;14.13;11.10;;;;;;;;;;4955346;28;20166;-72
2023/10/18 07:01:41;;;;;;;10.53;9.30;;;;;;;;;;4937848;28;20178;-72
2023/10/18 07:04:18;;;;;;;15.17;11.50;;;;;;;;;;4956557;28;20169;-71
2023/10/18 07:06:44;;;;;;;11.67;10.10;;;;;;;;;;4958468;28;20192;-72
2023/10/18 07:09:24;;;;;;;13.50;11.30;;;;;;;;;;4934915;28;20243;-71
2023/10/18 07:11:50;;;;;;;9.43;7.43;;;;;;;;;;4953710;28;20233;-72
2023/10/18 07:14:16;;;;;;;8.80;6.50;;;;;;;;;;4936542;29;20337;-71
2023/10/18 07:16:42;;;;;;;10.57;7.60;;;;;;;;;;4934962;28;20313;-72
2023/10/18 07:19:25;;;;;;;11.07;8.67;;;;;;;;;;4948012;28;20193;-72
2023/10/18 07:21:50;;;;;;;19.03;12.17;;;;;;;;;;4930403;28;20185;-72
2023/10/18 07:24:17;;;;;;;10.27;6.73;;;;;;;;;;4952890;28;20177;-72
2023/10/18 07:26:43;;;;;;;6.90;6.17;;;;;;;;;;4933940;28;20189;-72
2023/10/18 07:29:08;;;;;;;7.40;5.40;;;;;;;;;;4951957;28;20200;-72
2023/10/18 07:31:38;;;;;;;6.47;5.77;;;;;;;;;;4954198;28;20173;-72
2023/10/18 07:34:03;;;;;;;5.90;4.90;;;;;;;;;;4933876;28;20333;-71
2023/10/18 07:36:29;;;;;;;7.67;5.37;;;;;;;;;;4959747;28;20260;-71
2023/10/18 07:38:57;;;;;;;4.23;3.83;;;;;;;;;;4935487;28;20264;-72
2023/10/18 07:41:28;;;;;;;5.50;4.30;;;;;;;;;;4951851;28;20182;-71
2023/10/18 07:43:55;;;;;;;6.00;4.00;;;;;;;;;;4938748;28;20182;-72
2023/10/18 07:46:24;;;;;;;5.87;4.30;;;;;;;;;;4959448;28;20169;-71
2023/10/18 07:48:52;;;;;;;6.67;4.20;;;;;;;;;;4953820;28;20210;-72
2023/10/18 07:51:24;;;;;;;4.93;4.00;;;;;;;;;;4951953;28;20242;-72
2023/10/18 07:53:53;;;;;;;5.23;3.70;;;;;;;;;;4953841;28;20202;-72
2023/10/18 07:56:19;;;;;;;4.13;3.73;;;;;;;;;;4948011;28;20174;-72
2023/10/18 07:58:53;;;;;;;6.40;4.37;;;;;;;;;;4936866;28;20184;-71
2023/10/18 08:01:46;;;;;;;5.67;4.30;;;;;;;;;;4961524;28;20245;-72
2023/10/18 08:04:04;;;;;;;4.17;3.80;;;;;;;;;;4962709;28;20272;-72
2023/10/18 08:06:33;;;;;;;6.10;3.70;;;;;;;;;;4935787;28;20278;-72
2023/10/18 08:09:03;;;;;;;3.80;3.40;;;;;;;;;;4949180;28;20233;-72
2023/10/18 08:11:32;;;;;;;4.37;3.80;;;;;;;;;;4954272;28;20185;-71
2023/10/18 08:13:57;;;;;;;3.60;3.27;;;;;;;;;;4933214;28;20576;-71
2023/10/18 08:16:27;;;;;;;3.67;3.37;;;;;;;;;;4936726;28;20177;-72
2023/10/18 08:18:52;;;;;;;9.50;4.63;;;;;;;;;;4952634;28;20182;-72
2023/10/18 08:21:37;;;;;;;5.63;4.20;;;;;;;;;;4955646;28;20173;-71
2023/10/18 08:24:08;;;;;;;5.23;4.20;;;;;;;;;;4954841;28;20173;-71
2023/10/18 08:26:45;;;;;;;4.80;3.50;;;;;;;;;;4954420;28;20170;-72
2023/10/18 08:29:10;;;;;;;4.40;3.87;;;;;;;;;;4940513;29;20188;-71
2023/10/18 08:31:36;;;;;;;4.60;4.00;;;;;;;;;;4959649;28;20337;-71
2023/10/18 08:34:15;;;;;;;3.60;3.23;;;;;;;;;;4953886;28;20206;-72
2023/10/18 08:36:43;;;;;;;4.73;3.40;;;;;;;;;;4954779;28;20174;-72
2023/10/18 08:39:09;;;;;;;5.13;4.33;;;;;;;;;;4950931;28;20187;-72
2023/10/18 08:41:36;;;;;;;3.73;3.40;;;;;;;;;;4958358;28;20449;-71
2023/10/18 08:44:16;;;;;;;5.00;3.73;;;;;;;;;;4960533;28;20483;-71
2023/10/18 08:46:52;;;;;;;5.33;3.43;;;;;;;;;;4941872;28;20281;-72
2023/10/18 08:49:21;;;;;;;8.80;8.00;;;;;;;;;;4936381;28;20187;-72
2023/10/18 08:51:54;;;;;;;4.27;3.87;;;;;;;;;;4955715;28;20175;-71
2023/10/18 08:54:22;;;;;;;4.57;3.80;;;;;;;;;;4936648;29;20203;-72
2023/10/18 08:56:47;;;;;;;4.33;3.93;;;;;;;;;;4941034;28;20269;-71
2023/10/18 08:59:18;;;;;;;7.43;4.23;;;;;;;;;;4945870;28;20258;-71
2023/10/18 09:02:08;;;;;;;4.47;3.80;;;;;;;;;;4959214;28;20252;-71
2023/10/18 09:04:31;;;;;;;5.30;3.80;;;;;;;;;;4963256;28;20214;-72
2023/10/18 09:06:57;;;;;;;4.83;3.67;;;;;;;;;;4936831;28;20202;-72
2023/10/18 09:09:22;;;;;;;4.87;3.57;;;;;;;;;;4956328;28;20231;-72
2023/10/18 09:11:48;;;;;;;6.33;4.10;;;;;;;;;;4956668;28;20184;-72
2023/10/18 09:14:15;;;;;;;3.37;3.10;;;;;;;;;;4955433;28;20206;-72
2023/10/18 09:16:41;;;;;;;4.90;3.80;;;;;;;;;;4954058;28;20228;-72
2023/10/18 09:19:08;;;;;;;6.67;3.47;;;;;;;;;;4950306;28;20216;-72
2023/10/18 09:21:36;;;;;;;4.47;3.67;;;;;;;;;;4952833;28;20181;-72
2023/10/18 09:24:06;;;;;;;4.23;3.20;;;;;;;;;;4938240;28;20480;-72
2023/10/18 09:26:35;;;;;;;3.77;3.17;;;;;;;;;;4952982;28;20201;-72
2023/10/18 09:29:02;;;;;;;3.73;3.43;;;;;;;;;;4937086;28;20185;-72
2023/10/18 09:31:28;;;;;;;6.23;3.63;;;;;;;;;;4950208;28;20244;-72
2023/10/18 09:33:58;;;;;;;6.30;3.47;;;;;;;;;;4937117;28;20316;-73
2023/10/18 09:36:23;;;;;;;17.87;3.93;;;;;;;;;;4955368;28;20176;-72
2023/10/18 09:38:49;;;;;;;3.77;3.37;;;;;;;;;;4954323;28;20203;-71
2023/10/18 09:41:15;;;;;;;8.30;3.43;;;;;;;;;;4954332;28;20292;-71
2023/10/18 09:43:41;;;;;;;2.90;2.67;;;;;;;;;;4958027;28;20279;-72
2023/10/18 09:46:07;;;;;;;5.60;3.37;;;;;;;;;;4935926;28;20180;-72
2023/10/18 09:48:33;;;;;;;5.43;3.20;;;;;;;;;;4952050;28;20270;-72
2023/10/18 09:51:06;;;;;;;4.87;3.23;;;;;;;;;;4935890;28;20268;-72
2023/10/18 09:53:33;;;;;;;4.53;3.33;;;;;;;;;;4958465;28;20184;-72
2023/10/18 09:55:59;;;;;;;2.90;2.60;;;;;;;;;;4937257;28;20348;-72
2023/10/18 09:58:25;;;;;;;3.63;3.33;;;;;;;;;;4952365;28;20195;-72
2023/10/18 10:00:58;;;;;;;3.80;3.40;;;;;;;;;;4952863;28;20245;-72
2023/10/18 10:03:24;;;;;;;3.60;3.20;;;;;;;;;;4956308;28;20314;-72
2023/10/18 10:05:50;;;;;;;5.67;3.13;;;;;;;;;;4952984;28;20188;-72
2023/10/18 10:08:16;;;;;;;4.70;3.07;;;;;;;;;;4951154;28;20236;-72
2023/10/18 10:10:45;;;;;;;4.53;3.17;;;;;;;;;;4951948;28;20187;-72
2023/10/18 10:13:27;;;;;;;4.10;3.63;;;;;;;;;;4950495;28;20185;-72
2023/10/18 10:15:58;;;;;;;3.83;3.10;;;;;;;;;;4939171;29;20299;-72
2023/10/18 10:18:28;;;;;;;4.53;3.47;;;;;;;;;;4956667;28;20173;-72
2023/10/18 10:20:54;;;;;;;3.97;2.77;;;;;;;;;;4952919;28;20218;-72
2023/10/18 10:23:20;;;;;;;3.67;3.27;;;;;;;;;;4956030;28;20178;-72
2023/10/18 10:26:28;;;;;;;5.23;3.67;;;;;;;;;;4951934;28;20193;-72
2023/10/18 10:31:53;;;;;;;4.53;3.33;;;;;;;;;;4949855;28;20181;-72
2023/10/18 10:34:28;;;;;;;2.73;2.53;;;;;;;;;;4941068;28;20204;-72
2023/10/18 10:37:02;;;;;;;4.17;2.77;;;;;;;;;;4952659;28;20230;-72
2023/10/18 10:39:31;;;;;;;7.23;3.30;;;;;;;;;;4949216;28;20180;-72
2023/10/18 10:42:01;;;;;;;4.17;2.43;;;;;;;;;;4949497;28;20221;-72
2023/10/18 10:44:30;;;;;;;6.00;2.60;;;;;;;;;;4952331;28;20190;-72
2023/10/18 10:47:16;;;;;;;3.20;2.90;;;;;;;;;;4935041;28;20191;-72
2023/10/18 10:49:47;;;;;;;3.30;2.73;;;;;;;;;;4950909;28;20183;-72
2023/10/18 10:52:18;;;;;;;2.77;2.57;;;;;;;;;;4953132;28;20181;-72
2023/10/18 10:54:46;;;;;;;7.37;3.27;;;;;;;;;;4933849;28;20288;-72
2023/10/18 10:57:14;;;;;;;3.97;2.67;;;;;;;;;;4954611;28;20180;-73
2023/10/18 10:59:49;;;;;;;3.27;2.90;;;;;;;;;;4949857;28;20175;-72
2023/10/18 11:02:24;;;;;;;3.43;3.07;;;;;;;;;;4951847;28;20274;-72
2023/10/18 11:04:50;;;;;;;4.63;2.80;;;;;;;;;;4952082;28;20252;-71
2023/10/18 11:07:21;;;;;;;3.23;2.80;;;;;;;;;;4954147;28;20203;-72
2023/10/18 11:09:47;;;;;;;5.60;3.17;;;;;;;;;;4950825;28;20225;-72
2023/10/18 11:12:13;;;;;;;3.57;3.17;;;;;;;;;;4951220;28;20208;-72
2023/10/18 11:14:41;;;;;;;3.93;3.23;;;;;;;;;;4950521;28;20243;-72
2023/10/18 11:19:41;;;;;;;3.90;3.57;;;;;;;;;;4950236;28;20217;-72
2023/10/18 11:22:06;;;;;;;4.60;3.73;;;;;;;;;;4951550;28;20183;-71
2023/10/18 11:24:32;;;;;;;4.00;3.60;;;;;;;;;;4952232;28;20204;-72
2023/10/18 11:26:57;;;;;;;4.33;3.40;;;;;;;;;;4937040;28;20278;-72
2023/10/18 11:29:25;;;;;;;4.07;3.53;;;;;;;;;;4934671;29;20236;-73
2023/10/18 11:31:58;;;;;;;4.63;4.23;;;;;;;;;;4949958;28;20230;-72
2023/10/18 11:34:26;;;;;;;4.93;3.40;;;;;;;;;;4950447;28;20191;-72
2023/10/18 11:36:53;;;;;;;4.60;3.27;;;;;;;;;;4949976;28;20212;-72
2023/10/18 11:39:19;;;;;;;4.30;3.37;;;;;;;;;;4932254;28;20183;-72
2023/10/18 11:41:56;;;;;;;3.40;3.13;;;;;;;;;;4933663;29;20179;-72
2023/10/18 11:44:32;;;;;;;3.30;3.00;;;;;;;;;;4951807;28;20185;-72
2023/10/18 11:47:18;;;;;;;3.73;2.77;;;;;;;;;;4954346;28;20175;-73
2023/10/18 11:49:44;;;;;;;5.03;2.90;;;;;;;;;;4952095;28;20184;-72
2023/10/18 11:52:16;;;;;;;3.13;2.87;;;;;;;;;;4935923;28;20180;-73
2023/10/18 11:54:43;;;;;;;5.13;3.13;;;;;;;;;;4945615;28;20199;-72
2023/10/18 11:57:23;;;;;;;3.57;3.17;;;;;;;;;;4950773;28;20187;-72
2023/10/18 11:59:54;;;;;;;4.63;4.20;;;;;;;;;;4948763;28;20212;-73
2023/10/18 12:02:19;;;;;;;4.77;4.00;;;;;;;;;;4948533;28;20189;-77
2023/10/18 12:04:45;;;;;;;56.73;11.07;;;;;;;;;;4948927;28;20179;-76
2023/10/18 12:07:13;;;;;;;4.43;3.93;;;;;;;;;;4950305;28;20401;-77
2023/10/18 12:09:51;;;;;;;4.50;4.10;;;;;;;;;;4933935;29;20220;-78
2023/10/18 12:12:19;;;;;;;4.40;3.27;;;;;;;;;;4931685;28;20191;-77
2023/10/18 12:14:45;;;;;;;5.70;5.20;;;;;;;;;;4937930;28;20287;-77
2023/10/18 12:17:12;;;;;;;5.30;3.53;;;;;;;;;;4935558;28;20189;-77
2023/10/18 12:19:38;;;;;;;2.93;2.73;;;;;;;;;;4954200;28;20690;-76
2023/10/18 12:22:04;;;;;;;5.67;2.93;;;;;;;;;;4935072;28;20184;-77
2023/10/18 12:24:33;;;;;;;3.43;3.13;;;;;;;;;;4934779;28;20188;-77
2023/10/18 12:27:06;;;;;;;4.63;4.07;;;;;;;;;;4926237;29;20199;-76
2023/10/18 12:29:31;;;;;;;3.93;3.33;;;;;;;;;;4951585;28;20187;-77
2023/10/18 12:32:18;;;;;;;3.83;3.40;;;;;;;;;;4951917;28;20241;-77
2023/10/18 12:34:43;;;;;;;4.80;3.93;;;;;;;;;;4948933;28;20209;-77
2023/10/18 12:37:08;;;;;;;3.70;3.23;;;;;;;;;;4950452;28;20175;-77
2023/10/18 12:39:35;;;;;;;4.90;4.20;;;;;;;;;;4932359;28;20257;-77
2023/10/18 12:42:04;;;;;;;3.97;3.63;;;;;;;;;;4938983;28;20184;-76
2023/10/18 12:44:29;;;;;;;4.27;3.27;;;;;;;;;;4948492;28;20176;-77
2023/10/18 12:46:54;;;;;;;4.67;3.20;;;;;;;;;;4936999;29;20180;-77
2023/10/18 12:49:22;;;;;;;6.53;4.17;;;;;;;;;;4934652;28;20190;-77
2023/10/18 12:51:57;;;;;;;3.50;3.20;;;;;;;;;;4935680;29;20185;-78
2023/10/18 12:54:29;;;;;;;4.33;3.27;;;;;;;;;;4954723;28;20190;-77
2023/10/18 12:57:08;;;;;;;6.23;3.40;;;;;;;;;;4966543;28;20180;-77
2023/10/18 13:02:47;;;;;;;4.90;3.03;;;;;;;;;;4955975;28;20195;-77
2023/10/18 13:05:02;;;;;;;3.77;3.20;;;;;;;;;;4947877;28;20200;-78
2023/10/18 13:07:28;;;;;;;3.40;3.03;;;;;;;;;;4937967;29;20196;-77
2023/10/18 13:09:54;;;;;;;4.07;3.67;;;;;;;;;;4935011;29;20222;-77
2023/10/18 13:12:23;;;;;;;3.80;3.37;;;;;;;;;;4940077;28;20186;-77
2023/10/18 13:14:49;;;;;;;4.40;3.30;;;;;;;;;;4937088;29;20194;-77
2023/10/18 13:17:16;;;;;;;6.30;3.63;;;;;;;;;;4953035;28;20188;-77
2023/10/18 13:19:42;;;;;;;4.83;4.43;;;;;;;;;;4939468;28;20211;-77
2023/10/18 13:22:16;;;;;;;4.27;3.43;;;;;;;;;;4953647;28;20213;-76
2023/10/18 13:24:42;;;;;;;5.13;3.47;;;;;;;;;;4932315;29;20216;-77
2023/10/18 13:27:08;;;;;;;5.57;4.30;;;;;;;;;;4949263;28;20216;-77
2023/10/18 13:29:35;;;;;;;6.33;4.20;;;;;;;;;;4939085;29;20271;-77
2023/10/18 13:32:06;;;;;;;8.67;4.60;;;;;;;;;;4937764;28;20238;-77
2023/10/18 13:34:39;;;;;;;3.30;3.00;;;;;;;;;;4950102;28;20227;-77
2023/10/18 13:37:09;;;;;;;3.83;3.43;;;;;;;;;;4937955;28;20182;-77
2023/10/18 13:39:35;;;;;;;4.17;3.40;;;;;;;;;;4938308;29;20205;-77
2023/10/18 13:42:02;;;;;;;4.70;3.30;;;;;;;;;;4935000;29;20188;-77
2023/10/18 13:44:29;;;;;;;4.90;4.13;;;;;;;;;;4936436;29;20183;-78
2023/10/18 13:46:55;;;;;;;4.50;3.60;;;;;;;;;;4938596;29;20180;-78
2023/10/18 13:49:20;;;;;;;8.57;3.87;;;;;;;;;;4939986;28;20184;-77
2023/10/18 13:51:48;;;;;;;5.93;4.00;;;;;;;;;;4938932;28;20191;-77
2023/10/18 13:54:13;;;;;;;4.33;3.60;;;;;;;;;;4936406;28;20195;-78
2023/10/18 13:56:39;;;;;;;4.73;4.03;;;;;;;;;;4938552;29;20348;-77
2023/10/18 13:59:04;;;;;;;4.00;3.60;;;;;;;;;;4955301;28;20203;-77
2023/10/18 14:01:31;;;;;;;4.40;3.90;;;;;;;;;;4937843;29;20192;-77
2023/10/18 14:03:59;;;;;;;5.60;3.67;;;;;;;;;;4931450;29;20208;-77
2023/10/18 14:06:25;;;;;;;3.93;3.53;;;;;;;;;;4950016;28;20180;-77
2023/10/18 14:08:50;;;;;;;4.83;3.73;;;;;;;;;;4931955;28;20229;-77
2023/10/18 14:11:17;;;;;;;4.17;3.73;;;;;;;;;;4947955;28;20199;-77
2023/10/18 14:13:46;;;;;;;4.33;3.87;;;;;;;;;;4951784;28;20179;-77
2023/10/18 14:16:12;;;;;;;6.23;4.03;;;;;;;;;;4949980;28;20261;-73
2023/10/18 14:18:40;;;;;;;4.10;3.70;;;;;;;;;;4952337;28;20186;-73
2023/10/18 14:21:12;;;;;;;4.60;4.20;;;;;;;;;;4956503;28;20237;-72
2023/10/18 14:23:37;;;;;;;5.20;4.07;;;;;;;;;;4960760;28;20264;-73
2023/10/18 14:26:04;;;;;;;4.40;3.87;;;;;;;;;;4954537;28;20271;-72
2023/10/18 14:28:31;;;;;;;5.77;4.50;;;;;;;;;;4952531;28;20529;-73
2023/10/18 14:30:58;;;;;;;4.70;3.73;;;;;;;;;;4951785;28;20213;-72
2023/10/18 14:33:26;;;;;;;5.67;4.07;;;;;;;;;;4953418;28;20358;-73
2023/10/18 14:35:52;;;;;;;5.20;4.70;;;;;;;;;;4958381;28;20220;-73
2023/10/18 14:38:17;;;;;;;7.57;5.23;;;;;;;;;;4953453;28;20180;-72
2023/10/18 14:40:46;;;;;;;13.27;6.93;;;;;;;;;;4957839;28;20269;-72
2023/10/18 14:43:12;;;;;;;6.33;5.03;;;;;;;;;;4955358;28;20266;-72
2023/10/18 14:45:40;;;;;;;10.33;6.23;;;;;;;;;;4953488;28;20268;-72
2023/10/18 14:48:05;;;;;;;7.13;4.90;;;;;;;;;;4958777;28;20176;-73
2023/10/18 14:50:30;;;;;;;6.57;4.10;;;;;;;;;;4937625;29;20259;-72
2023/10/18 14:52:58;;;;;;;7.27;4.83;;;;;;;;;;4935672;28;20187;-73
2023/10/18 14:55:24;;;;;;;8.33;4.77;;;;;;;;;;4930910;28;20204;-72
2023/10/18 14:57:49;;;;;;;5.83;4.27;;;;;;;;;;4935345;28;20190;-72
2023/10/18 15:00:19;;;;;;;4.90;4.00;;;;;;;;;;4955068;28;20202;-72
2023/10/18 15:02:50;;;;;;;5.87;5.23;;;;;;;;;;4972753;28;20175;-72
2023/10/18 15:05:17;;;;;;;6.70;5.33;;;;;;;;;;4957958;28;20178;-73
2023/10/18 15:07:43;;;;;;;5.00;4.50;;;;;;;;;;4957550;28;20286;-73
2023/10/18 15:10:08;;;;;;;5.13;4.20;;;;;;;;;;4946515;28;20268;-72
2023/10/18 15:12:36;;;;;;;4.67;4.27;;;;;;;;;;4934153;29;20187;-72
2023/10/18 15:15:01;;;;;;;4.70;4.30;;;;;;;;;;4948553;28;20271;-72
2023/10/18 15:17:26;;;;;;;5.57;5.00;;;;;;;;;;4948255;28;20186;-72
2023/10/18 15:19:52;;;;;;;6.50;4.60;;;;;;;;;;4936284;28;20230;-72
2023/10/18 15:22:18;;;;;;;6.93;4.00;;;;;;;;;;4957069;28;20180;-72
2023/10/18 15:24:43;;;;;;;5.83;4.60;;;;;;;;;;4939336;29;20191;-73